Time;durP1;ratioP1;P1;durP2;ratioP2;P2;SDS_P1;SDS_P2;PMS_P1;PMS_P2;Temp;Humidity;BMP_temperature;BMP_pressure;BME280_temperature;BME280_humidity;BME280_pressure;Samples;Min_cycle;Max_cycle;Signal;HPM_P1;HPM_P2
2020/12/30 00:00:49;;;;;;;28.07;21.30;;;;;;;5.95;72.23;99000.19;5029723;28;20210;-75
2020/12/30 00:03:14;;;;;;;29.63;20.83;;;;;;;5.90;72.59;99000.19;5031049;28;20174;-75
2020/12/30 00:05:39;;;;;;;25.20;20.40;;;;;;;5.59;72.80;99002.75;5035504;28;20213;-74
2020/12/30 00:08:05;;;;;;;25.53;19.57;;;;;;;5.60;74.09;99007.03;5038736;28;20440;-75
2020/12/30 00:10:30;;;;;;;28.37;20.93;;;;;;;6.07;72.30;99002.81;5032981;28;20193;-74
2020/12/30 00:12:56;;;;;;;28.73;20.90;;;;;;;5.70;72.96;99006.19;5038687;28;20258;-73
2020/12/30 00:15:21;;;;;;;28.73;20.83;;;;;;;5.59;73.19;99005.34;5038942;28;20202;-72
2020/12/30 00:17:47;;;;;;;29.83;21.87;;;;;;;5.59;73.77;99015.66;5039140;28;20487;-73
2020/12/30 00:20:14;;;;;;;31.47;21.30;;;;;;;5.56;73.75;99005.31;5038254;28;20170;-73
2020/12/30 00:22:41;;;;;;;30.50;22.00;;;;;;;6.15;72.57;99005.41;5038122;28;20539;-73
2020/12/30 00:25:07;;;;;;;33.13;22.23;;;;;;;6.17;71.74;99012.28;5038578;28;20464;-72
2020/12/30 00:27:34;;;;;;;30.80;22.73;;;;;;;6.12;72.63;99016.59;5036356;28;20467;-73
2020/12/30 00:30:00;;;;;;;31.07;23.47;;;;;;;6.14;72.33;99024.38;5018920;28;20417;-72
2020/12/30 00:32:25;;;;;;;33.93;23.80;;;;;;;5.77;73.79;99025.16;5021814;28;20483;-73
2020/12/30 00:34:51;;;;;;;31.40;24.00;;;;;;;5.97;72.46;99021.75;5038460;28;20448;-74
2020/12/30 00:37:16;;;;;;;32.53;24.37;;;;;;;6.03;72.31;99016.59;5038310;28;20224;-73
2020/12/30 00:39:41;;;;;;;32.63;24.17;;;;;;;6.11;71.86;99016.59;5037661;28;20558;-75
2020/12/30 00:42:07;;;;;;;34.87;25.10;;;;;;;6.15;71.51;99014.00;5038472;28;20459;-73
2020/12/30 00:44:32;;;;;;;37.23;25.60;;;;;;;6.52;70.51;99011.41;5038813;28;20204;-73
2020/12/30 00:46:58;;;;;;;33.90;24.37;;;;;;;5.82;72.51;99025.16;5038420;28;20197;-73
2020/12/30 00:49:24;;;;;;;35.20;25.60;;;;;;;6.34;70.99;99026.94;5037498;28;20169;-74
2020/12/30 00:51:51;;;;;;;34.90;25.07;;;;;;;6.40;71.19;99020.03;5039283;28;20220;-73
2020/12/30 00:54:16;;;;;;;35.70;25.90;;;;;;;6.15;72.74;99020.91;5038188;28;20417;-74
2020/12/30 00:56:41;;;;;;;34.10;25.07;;;;;;;6.23;71.39;99029.53;5039055;28;20555;-75
2020/12/30 00:59:07;;;;;;;33.90;25.40;;;;;;;6.47;70.64;99028.66;5039203;28;20250;-74
2020/12/30 01:01:32;;;;;;;38.50;28.03;;;;;;;6.11;72.06;99021.78;5038718;28;20235;-74
2020/12/30 01:03:57;;;;;;;39.00;27.97;;;;;;;6.28;71.64;99033.00;5038558;28;20277;-74
2020/12/30 01:06:23;;;;;;;42.77;26.53;;;;;;;6.33;71.04;99036.44;5039149;28;20162;-75
2020/12/30 01:08:48;;;;;;;36.43;26.43;;;;;;;6.45;70.62;99039.88;5038725;28;20178;-74
2020/12/30 01:11:13;;;;;;;35.30;25.67;;;;;;;6.11;71.49;99038.16;5037840;28;20559;-74
2020/12/30 01:13:39;;;;;;;32.47;25.23;;;;;;;6.31;71.11;99037.31;5038895;28;20304;-73
2020/12/30 01:16:04;;;;;;;37.23;26.83;;;;;;;6.55;70.03;99046.78;5038498;28;20255;-73
2020/12/30 01:18:29;;;;;;;35.97;26.20;;;;;;;6.46;70.77;99050.22;5038650;28;20256;-74
2020/12/30 01:21:02;;;;;;;40.13;27.73;;;;;;;6.22;71.14;99051.09;5038734;28;20541;-74
2020/12/30 01:23:28;;;;;;;37.43;26.00;;;;;;;5.73;72.77;99052.72;5037674;28;20425;-74
2020/12/30 01:25:55;;;;;;;41.80;28.70;;;;;;;6.25;70.77;99058.84;5038153;28;20555;-74
2020/12/30 01:28:20;;;;;;;37.43;27.13;;;;;;;5.92;72.46;99060.53;5038273;28;20432;-73
2020/12/30 01:30:47;;;;;;;35.17;25.40;;;;;;;6.13;71.75;99064.91;5038351;28;20424;-75
2020/12/30 01:33:12;;;;;;;38.47;27.73;;;;;;;6.28;71.14;99061.47;5037714;28;20191;-74
2020/12/30 01:35:38;;;;;;;34.27;25.97;;;;;;;6.52;69.99;99067.47;5037946;28;20468;-73
2020/12/30 01:38:03;;;;;;;32.77;24.80;;;;;;;6.00;71.04;99069.19;5038144;28;20453;-75
2020/12/30 01:40:28;;;;;;;34.77;24.97;;;;;;;5.98;71.92;99070.94;5038404;28;20177;-74
2020/12/30 01:42:54;;;;;;;36.53;26.00;;;;;;;6.31;71.84;99068.38;5037984;28;20181;-73
2020/12/30 01:45:19;;;;;;;34.03;24.17;;;;;;;6.40;70.20;99089.94;5037904;28;20170;-74
2020/12/30 01:47:47;;;;;;;37.27;24.97;;;;;;;6.31;69.69;99081.31;5038308;28;20500;-74
2020/12/30 01:50:14;;;;;;;36.77;26.90;;;;;;;6.12;71.14;99083.03;5036130;28;20178;-73
2020/12/30 01:52:40;;;;;;;33.77;25.10;;;;;;;6.32;70.43;99086.47;5037927;28;20409;-73
2020/12/30 01:55:06;;;;;;;34.30;25.90;;;;;;;6.41;69.91;99080.41;5038115;28;20476;-73
2020/12/30 01:57:31;;;;;;;36.47;25.60;;;;;;;6.54;69.20;99087.31;5037037;28;20810;-73
2020/12/30 01:59:56;;;;;;;33.93;25.07;;;;;;;6.40;70.82;99084.75;5037663;28;20192;-74
2020/12/30 02:02:23;;;;;;;38.60;26.50;;;;;;;6.16;70.68;99079.56;5038022;28;20202;-73
2020/12/30 02:04:52;;;;;;;36.03;27.07;;;;;;;6.76;68.36;99084.69;5037610;28;20181;-74
2020/12/30 02:07:18;;;;;;;36.27;27.47;;;;;;;6.05;70.61;99088.19;5037633;28;20417;-74
2020/12/30 02:09:44;;;;;;;36.00;26.93;;;;;;;6.15;71.47;99080.44;5037781;28;20416;-73
2020/12/30 02:12:11;;;;;;;34.80;25.00;;;;;;;6.21;72.01;99090.75;5037402;28;20312;-73
2020/12/30 02:14:37;;;;;;;36.07;25.70;;;;;;;5.73;71.84;99086.34;5037380;28;20816;-73
2020/12/30 02:17:02;;;;;;;36.50;26.87;;;;;;;6.30;70.66;99088.19;5037814;28;20421;-73
2020/12/30 02:19:28;;;;;;;37.27;28.30;;;;;;;6.34;69.54;99097.69;5037395;28;20429;-74
2020/12/30 02:21:55;;;;;;;38.83;27.00;;;;;;;6.10;70.77;99095.94;5037576;28;20178;-74
2020/12/30 02:24:31;;;;;;;34.70;26.07;;;;;;;6.18;71.29;99094.25;5036869;28;20376;-74
2020/12/30 02:26:57;;;;;;;38.37;28.30;;;;;;;6.06;70.45;99100.25;5037381;28;20424;-73
2020/12/30 02:29:22;;;;;;;37.60;28.13;;;;;;;6.32;69.88;99091.66;5037293;28;20420;-73
2020/12/30 02:31:48;;;;;;;36.63;27.13;;;;;;;5.85;70.76;99100.19;5037302;28;20429;-73
2020/12/30 02:34:14;;;;;;;36.17;27.33;;;;;;;5.70;72.63;99099.28;5037293;28;20587;-74
2020/12/30 02:36:39;;;;;;;38.10;27.90;;;;;;;5.87;72.14;99093.28;5037539;28;20454;-74
2020/12/30 02:39:04;;;;;;;38.83;28.03;;;;;;;6.36;70.32;99101.13;5036452;28;20273;-73
2020/12/30 02:41:30;;;;;;;37.80;26.07;;;;;;;6.23;71.19;99107.16;5037243;28;20213;-73
2020/12/30 02:43:55;;;;;;;36.40;27.70;;;;;;;5.90;71.05;99103.66;5037784;28;20194;-73
2020/12/30 02:46:21;;;;;;;38.73;26.90;;;;;;;5.99;71.36;99103.66;5037280;28;20166;-73
2020/12/30 02:48:46;;;;;;;40.07;27.03;;;;;;;6.20;69.63;99108.03;5036911;28;20297;-73
2020/12/30 02:51:11;;;;;;;34.87;26.23;;;;;;;6.52;69.23;99101.13;5034919;28;20201;-73
2020/12/30 02:53:37;;;;;;;32.43;24.93;;;;;;;6.04;70.88;99109.72;5036800;28;20544;-74
2020/12/30 02:56:02;;;;;;;33.33;26.90;;;;;;;5.69;71.87;99107.03;5036779;28;20205;-74
2020/12/30 02:58:28;;;;;;;34.90;26.37;;;;;;;6.06;69.88;99118.38;5037277;28;20229;-74
2020/12/30 03:00:53;;;;;;;37.97;25.63;;;;;;;5.97;71.28;99104.53;5036813;28;20180;-73
2020/12/30 03:03:18;;;;;;;35.33;24.77;;;;;;;5.89;70.74;99107.94;5040397;28;20544;-73
2020/12/30 03:05:44;;;;;;;32.00;24.60;;;;;;;5.99;71.23;99118.34;5041274;28;20170;-73
2020/12/30 03:08:09;;;;;;;32.77;25.43;;;;;;;6.02;70.66;99110.56;5040340;28;20220;-74
2020/12/30 03:10:34;;;;;;;33.60;23.70;;;;;;;6.00;71.31;99105.41;5040627;28;20181;-73
2020/12/30 03:12:59;;;;;;;31.80;25.43;;;;;;;5.97;71.21;99113.13;5041107;28;20166;-73
2020/12/30 03:15:25;;;;;;;39.50;25.70;;;;;;;6.01;70.17;99116.63;5040708;28;20210;-73
2020/12/30 03:17:50;;;;;;;33.23;26.77;;;;;;;5.96;70.15;99116.56;5040713;28;20232;-73
2020/12/30 03:20:15;;;;;;;31.83;25.33;;;;;;;5.71;71.34;99106.19;5040979;28;20166;-73
2020/12/30 03:22:41;;;;;;;31.47;25.93;;;;;;;5.87;70.39;99121.72;5040611;28;20224;-73
2020/12/30 03:25:06;;;;;;;33.97;24.93;;;;;;;5.82;71.06;99118.25;5040479;28;20245;-73
2020/12/30 03:27:31;;;;;;;35.57;24.30;;;;;;;5.64;71.00;99117.38;5040899;28;20171;-72
2020/12/30 03:29:57;;;;;;;36.33;25.03;;;;;;;5.66;70.96;99130.31;5040441;28;20185;-73
2020/12/30 03:32:22;;;;;;;33.73;23.93;;;;;;;5.63;72.20;99114.75;5040542;28;20182;-72
2020/12/30 03:34:47;;;;;;;30.30;23.60;;;;;;;6.05;69.88;99120.97;5040658;28;20174;-73
2020/12/30 03:37:13;;;;;;;31.47;23.37;;;;;;;5.54;71.45;99120.78;5040319;28;20174;-72
2020/12/30 03:39:38;;;;;;;31.27;23.60;;;;;;;5.73;70.76;99119.97;5040150;28;20551;-72
2020/12/30 03:42:04;;;;;;;32.00;24.00;;;;;;;5.76;71.18;99119.09;5041155;28;20575;-72
2020/12/30 03:44:29;;;;;;;30.30;24.00;;;;;;;6.06;69.68;99126.13;5040162;28;20170;-73
2020/12/30 03:46:54;;;;;;;26.93;21.47;;;;;;;5.66;70.70;99128.56;5040193;28;20170;-73
2020/12/30 03:49:20;;;;;;;32.53;23.83;;;;;;;5.68;71.17;99132.03;5040398;28;20245;-73
2020/12/30 03:51:45;;;;;;;32.53;23.40;;;;;;;5.69;70.50;99141.50;5039980;28;20484;-74
2020/12/30 03:54:10;;;;;;;29.10;22.80;;;;;;;6.03;69.52;99133.00;5039939;28;20201;-74
2020/12/30 03:56:36;;;;;;;30.73;23.43;;;;;;;6.23;69.10;99133.91;5040220;28;20187;-73
2020/12/30 03:59:01;;;;;;;31.90;24.83;;;;;;;6.03;69.99;99135.59;5039744;28;20193;-73
2020/12/30 04:01:26;;;;;;;31.50;23.97;;;;;;;6.24;68.89;99138.22;5039819;28;20205;-73
2020/12/30 04:03:52;;;;;;;30.83;23.40;;;;;;;5.97;69.82;99136.41;5040274;28;20246;-73
2020/12/30 04:06:17;;;;;;;30.17;22.97;;;;;;;6.12;68.66;99134.78;5039881;28;20175;-73
2020/12/30 04:08:42;;;;;;;28.37;21.90;;;;;;;5.85;69.67;99131.22;5039805;28;20174;-73
2020/12/30 04:11:08;;;;;;;31.47;23.83;;;;;;;5.47;71.89;99140.56;5039863;28;20167;-75
2020/12/30 04:13:33;;;;;;;28.03;21.50;;;;;;;6.04;70.12;99140.78;5038721;28;20218;-73
2020/12/30 04:15:58;;;;;;;28.80;22.70;;;;;;;6.04;69.50;99139.91;5039499;28;20210;-73
2020/12/30 04:18:23;;;;;;;32.57;24.40;;;;;;;6.20;69.50;99144.25;5039966;28;20192;-74
2020/12/30 04:20:49;;;;;;;28.87;22.93;;;;;;;6.07;68.75;99138.22;5039405;28;20171;-74
2020/12/30 04:23:14;;;;;;;32.50;23.17;;;;;;;5.86;69.82;99157.06;5039479;28;20170;-73
2020/12/30 04:25:40;;;;;;;27.97;21.80;;;;;;;5.87;70.04;99155.34;5039427;28;20543;-72
2020/12/30 04:28:05;;;;;;;28.83;22.67;;;;;;;6.19;69.82;99163.22;5041028;28;20546;-73
2020/12/30 04:30:30;;;;;;;30.93;23.67;;;;;;;5.72;70.54;99157.03;5040410;28;20488;-73
2020/12/30 04:32:55;;;;;;;27.90;23.47;;;;;;;6.14;69.46;99151.13;5039407;28;20178;-72
2020/12/30 04:35:21;;;;;;;32.37;24.20;;;;;;;5.94;70.04;99153.63;5039275;28;20234;-72
2020/12/30 04:37:46;;;;;;;29.63;22.60;;;;;;;5.55;69.79;99156.97;5039572;28;20181;-73
2020/12/30 04:40:11;;;;;;;32.13;23.80;;;;;;;5.98;69.77;99156.28;5039029;28;20623;-74
2020/12/30 04:42:37;;;;;;;26.90;22.30;;;;;;;5.99;70.28;99158.00;5039023;28;20223;-73
2020/12/30 04:45:08;;;;;;;30.13;23.73;;;;;;;5.60;71.29;99162.13;5038841;28;20159;-73
2020/12/30 04:47:34;;;;;;;33.37;23.90;;;;;;;6.03;69.58;99166.63;5039069;28;20814;-75
2020/12/30 04:50:00;;;;;;;29.47;24.20;;;;;;;5.72;70.33;99162.22;5038748;28;20551;-74
2020/12/30 04:52:27;;;;;;;29.73;22.93;;;;;;;5.93;70.01;99167.44;5039316;28;20404;-74
2020/12/30 04:54:53;;;;;;;31.50;22.57;;;;;;;5.82;69.33;99175.16;5038758;28;20474;-74
2020/12/30 04:57:41;;;;;;;34.43;24.87;;;;;;;6.00;70.25;99170.06;5038974;28;20428;-74
2020/12/30 05:00:07;;;;;;;31.17;22.93;;;;;;;5.89;70.23;99177.78;5038732;28;20208;-74
2020/12/30 05:02:34;;;;;;;32.97;23.93;;;;;;;5.77;71.68;99177.72;5038774;28;20425;-75
2020/12/30 05:05:00;;;;;;;32.00;24.03;;;;;;;5.72;70.12;99169.97;5039005;28;20819;-74
2020/12/30 05:07:28;;;;;;;29.97;23.13;;;;;;;6.18;68.57;99178.75;5038555;28;20420;-74
2020/12/30 05:09:57;;;;;;;32.03;23.73;;;;;;;6.34;69.53;99175.31;5038938;28;20167;-74
2020/12/30 05:12:24;;;;;;;31.80;24.07;;;;;;;6.12;68.98;99173.56;5038625;28;20690;-74
2020/12/30 05:14:49;;;;;;;31.83;22.93;;;;;;;5.77;69.69;99179.47;5038524;28;20420;-74
2020/12/30 05:17:15;;;;;;;32.13;22.27;;;;;;;6.12;68.76;99182.19;5038831;28;20413;-74
2020/12/30 05:19:42;;;;;;;32.43;22.10;;;;;;;6.00;68.89;99180.44;5038362;28;20227;-73
2020/12/30 05:22:14;;;;;;;28.73;21.77;;;;;;;5.98;70.39;99184.75;5038342;28;20413;-74
2020/12/30 05:24:39;;;;;;;28.27;23.03;;;;;;;5.72;69.85;99182.91;5038137;28;20544;-73
2020/12/30 05:27:05;;;;;;;32.10;24.70;;;;;;;6.05;69.53;99185.63;5038317;28;20417;-74
2020/12/30 05:29:30;;;;;;;29.00;23.43;;;;;;;6.09;69.03;99196.84;5038300;28;20451;-73
2020/12/30 05:31:56;;;;;;;33.10;24.27;;;;;;;5.69;70.48;99187.19;5038151;28;20182;-73
2020/12/30 05:34:22;;;;;;;27.73;21.17;;;;;;;5.77;69.77;99192.41;5038118;28;20212;-73
2020/12/30 05:36:48;;;;;;;26.97;22.20;;;;;;;5.32;70.43;99197.34;5038472;28;20197;-73
2020/12/30 05:39:33;;;;;;;31.27;23.47;;;;;;;5.54;70.95;99209.50;5038027;28;20413;-72
2020/12/30 05:42:13;;;;;;;30.17;21.77;;;;;;;5.92;69.81;99204.53;5038014;28;20755;-73
2020/12/30 05:44:41;;;;;;;33.90;22.53;;;;;;;5.78;69.66;99199.28;5037940;28;20494;-73
2020/12/30 05:47:10;;;;;;;27.20;21.77;;;;;;;5.70;69.85;99202.69;5037877;28;20849;-73
2020/12/30 05:49:35;;;;;;;30.03;21.80;;;;;;;5.42;71.55;99211.19;5037748;28;20413;-72
2020/12/30 05:52:13;;;;;;;29.70;22.67;;;;;;;5.97;69.82;99205.41;5037796;28;20872;-74
2020/12/30 05:54:38;;;;;;;31.53;23.60;;;;;;;5.68;69.47;99204.44;5037704;28;20464;-72
2020/12/30 05:57:19;;;;;;;26.73;22.43;;;;;;;5.50;69.56;99212.09;5037749;28;20420;-74
2020/12/30 05:59:44;;;;;;;26.53;21.77;;;;;;;5.85;68.92;99208.81;5037617;28;20376;-73
2020/12/30 06:02:11;;;;;;;29.10;21.33;;;;;;;5.83;68.42;99207.91;5036889;28;20428;-73
2020/12/30 06:04:36;;;;;;;31.00;20.93;;;;;;;6.18;67.98;99213.28;5037245;28;20173;-74
2020/12/30 06:07:02;;;;;;;28.50;22.50;;;;;;;5.79;69.05;99217.41;5037712;28;20416;-72
2020/12/30 06:09:37;;;;;;;27.53;22.20;;;;;;;5.79;68.92;99217.41;5037423;28;20552;-72
2020/12/30 06:12:05;;;;;;;29.03;21.60;;;;;;;5.87;68.49;99223.47;5037411;28;20794;-73
2020/12/30 06:14:30;;;;;;;28.27;20.23;;;;;;;5.83;69.38;99224.31;5037506;28;20507;-72
2020/12/30 06:17:00;;;;;;;26.93;21.57;;;;;;;5.74;69.56;99222.53;5037696;28;20458;-73
2020/12/30 06:19:26;;;;;;;24.67;19.10;;;;;;;5.87;68.71;99222.59;5037223;28;20250;-73
2020/12/30 06:21:52;;;;;;;24.90;19.00;;;;;;;5.89;68.20;99241.56;5037385;28;20616;-72
2020/12/30 06:24:18;;;;;;;24.07;20.93;;;;;;;5.49;68.98;99236.19;5037387;28;20553;-73
2020/12/30 06:26:44;;;;;;;26.27;21.57;;;;;;;5.67;69.16;99238.00;5037279;28;20265;-73
2020/12/30 06:29:12;;;;;;;28.20;21.50;;;;;;;5.67;68.65;99230.25;5037291;28;20188;-73
2020/12/30 06:31:47;;;;;;;28.10;20.70;;;;;;;5.65;69.96;99245.75;5037918;28;20459;-74
2020/12/30 06:34:16;;;;;;;27.80;20.50;;;;;;;6.03;69.00;99237.34;5037329;28;20511;-73
2020/12/30 06:36:44;;;;;;;25.00;21.60;;;;;;;5.98;67.57;99235.59;5036647;28;20518;-73
2020/12/30 06:39:20;;;;;;;26.20;20.57;;;;;;;6.13;66.61;99239.97;5036940;28;20413;-73
2020/12/30 06:41:57;;;;;;;28.10;21.83;;;;;;;5.90;68.18;99246.75;5037172;28;20412;-73
2020/12/30 06:44:41;;;;;;;26.47;21.20;;;;;;;5.53;68.81;99248.28;5037222;28;20428;-73
2020/12/30 06:47:11;;;;;;;28.33;21.93;;;;;;;6.31;67.04;99247.78;5037194;28;20401;-73
2020/12/30 06:49:37;;;;;;;27.07;21.80;;;;;;;6.16;67.45;99251.19;5036894;28;20979;-72
2020/12/30 06:52:23;;;;;;;24.90;21.50;;;;;;;5.86;68.56;99257.94;5036974;28;20428;-74
2020/12/30 06:54:48;;;;;;;25.07;20.90;;;;;;;5.73;68.23;99259.59;5036815;28;20522;-73
2020/12/30 06:57:40;;;;;;;26.17;21.63;;;;;;;6.18;67.11;99270.19;5037058;28;20861;-74
2020/12/30 07:00:34;;;;;;;25.63;19.87;;;;;;;6.04;67.48;99270.13;5036231;28;20171;-73
2020/12/30 07:03:14;;;;;;;26.10;20.77;;;;;;;6.02;67.76;99274.44;5036978;28;20417;-73
2020/12/30 07:05:39;;;;;;;28.63;21.20;;;;;;;5.90;67.46;99276.94;5036958;28;20427;-73
2020/12/30 07:08:05;;;;;;;27.60;21.47;;;;;;;6.13;66.88;99281.34;5036841;28;20420;-73
2020/12/30 07:10:30;;;;;;;32.87;22.93;;;;;;;6.18;67.59;99284.84;5036643;28;20166;-73
2020/12/30 07:12:55;;;;;;;28.00;22.53;;;;;;;6.20;66.34;99285.72;5037280;28;20536;-73
2020/12/30 07:15:26;;;;;;;28.50;22.50;;;;;;;5.68;68.65;99284.59;5036667;28;20191;-73
2020/12/30 07:17:54;;;;;;;28.37;22.17;;;;;;;5.94;68.35;99298.50;5036846;28;20182;-72
2020/12/30 07:20:22;;;;;;;29.53;22.43;;;;;;;6.03;67.17;99296.84;5036927;28;20413;-73
2020/12/30 07:22:48;;;;;;;26.90;22.27;;;;;;;5.81;66.90;99305.34;5036653;28;20406;-72
2020/12/30 07:25:17;;;;;;;29.93;21.67;;;;;;;6.01;68.17;99308.06;5036495;28;20453;-73
2020/12/30 07:27:43;;;;;;;29.07;21.80;;;;;;;5.63;68.94;99304.38;5037167;28;20166;-73
2020/12/30 07:30:08;;;;;;;26.53;22.33;;;;;;;5.92;68.38;99320.91;5036556;28;20425;-72
2020/12/30 07:32:34;;;;;;;29.97;23.30;;;;;;;5.56;68.64;99316.38;5036837;28;20170;-74
2020/12/30 07:35:00;;;;;;;29.03;22.57;;;;;;;6.17;67.09;99324.50;5036951;28;20415;-73
2020/12/30 07:37:25;;;;;;;31.00;23.33;;;;;;;5.80;68.02;99326.88;5036457;28;20174;-72
2020/12/30 07:39:51;;;;;;;31.07;23.30;;;;;;;5.24;69.82;99341.97;5036510;28;20814;-74
2020/12/30 07:42:23;;;;;;;27.73;23.23;;;;;;;5.63;68.97;99331.91;5036132;28;20540;-74
2020/12/30 07:44:56;;;;;;;28.80;23.17;;;;;;;6.24;66.77;99321.97;5036613;28;20417;-73
2020/12/30 07:47:23;;;;;;;24.37;19.83;;;;;;;5.57;68.74;99328.47;5036535;28;20417;-73
2020/12/30 07:49:49;;;;;;;32.47;22.23;;;;;;;5.32;69.56;99327.41;5038798;28;20421;-73
2020/12/30 07:52:15;;;;;;;27.50;22.40;;;;;;;5.49;69.48;99330.09;5040192;28;20820;-72
2020/12/30 07:54:40;;;;;;;29.53;21.63;;;;;;;5.73;67.83;99339.75;5040377;28;20177;-73
2020/12/30 07:57:09;;;;;;;27.63;21.63;;;;;;;5.84;67.92;99337.22;5039931;28;20202;-74
2020/12/30 07:59:36;;;;;;;27.83;21.97;;;;;;;5.69;68.04;99344.91;5039657;28;20483;-74
2020/12/30 08:02:04;;;;;;;31.90;24.20;;;;;;;5.66;68.38;99348.31;5040125;28;20655;-73
2020/12/30 08:04:34;;;;;;;30.20;22.60;;;;;;;5.47;68.72;99354.22;5039996;28;20834;-74
2020/12/30 08:07:07;;;;;;;30.23;22.93;;;;;;;5.86;67.65;99360.53;5039718;28;20424;-74
2020/12/30 08:09:34;;;;;;;29.97;21.70;;;;;;;5.65;69.53;99366.41;5039573;28;20431;-74
2020/12/30 08:12:11;;;;;;;27.90;20.53;;;;;;;5.64;68.45;99370.75;5039936;28;20806;-74
2020/12/30 08:14:38;;;;;;;28.37;20.07;;;;;;;5.54;68.96;99384.44;5039584;28;20485;-74
2020/12/30 08:17:11;;;;;;;30.50;22.77;;;;;;;5.74;68.25;99382.84;5039446;28;20464;-74
2020/12/30 08:19:38;;;;;;;25.90;21.93;;;;;;;6.17;67.18;99376.25;5039441;28;20420;-74
2020/12/30 08:22:14;;;;;;;24.70;20.70;;;;;;;6.14;67.77;99381.41;5039778;28;20429;-75
2020/12/30 08:24:46;;;;;;;27.57;21.50;;;;;;;6.06;66.62;99381.38;5039540;28;20494;-74
2020/12/30 08:27:13;;;;;;;26.27;19.63;;;;;;;5.45;68.71;99374.88;5039525;28;20409;-74
2020/12/30 08:29:40;;;;;;;25.60;21.07;;;;;;;5.92;67.42;99381.25;5040009;28;20432;-73
2020/12/30 08:32:14;;;;;;;27.70;22.10;;;;;;;5.64;67.98;99388.84;5036882;28;20547;-74
2020/12/30 08:34:44;;;;;;;28.40;21.13;;;;;;;5.43;68.73;99394.69;5039332;28;20441;-75
2020/12/30 08:37:15;;;;;;;22.10;18.50;;;;;;;7.47;66.52;99392.19;5039107;28;20564;-73
2020/12/30 08:39:47;;;;;;;27.60;22.40;;;;;;;6.48;65.60;99391.94;5038221;28;20424;-73
2020/12/30 08:42:35;;;;;;;30.60;22.30;;;;;;;5.92;66.88;99398.50;5038425;28;20379;-74
2020/12/30 08:45:02;;;;;;;29.03;23.03;;;;;;;6.37;66.35;99395.38;5038114;28;20413;-73
2020/12/30 08:47:29;;;;;;;30.67;22.50;;;;;;;5.38;69.36;99401.53;5038948;28;20779;-73
2020/12/30 08:49:55;;;;;;;28.67;21.83;;;;;;;5.62;68.16;99410.34;5038132;28;20408;-73
2020/12/30 08:52:20;;;;;;;29.70;23.43;;;;;;;5.38;68.22;99399.78;5038568;28;20463;-74
2020/12/30 08:54:46;;;;;;;31.00;22.40;;;;;;;5.29;69.33;99407.50;5038777;28;20811;-73
2020/12/30 08:57:18;;;;;;;34.00;23.67;;;;;;;5.88;67.17;99405.38;5038866;28;20180;-74
2020/12/30 08:59:43;;;;;;;29.90;24.17;;;;;;;5.56;67.54;99406.88;5038632;28;20177;-73
2020/12/30 09:02:12;;;;;;;31.70;24.13;;;;;;;5.77;67.10;99404.44;5031499;28;20418;-75
2020/12/30 09:04:51;;;;;;;37.07;25.23;;;;;;;5.59;67.72;99410.31;5030549;28;20548;-75
2020/12/30 09:07:26;;;;;;;30.63;23.40;;;;;;;5.64;67.55;99417.28;5038126;28;20417;-75
2020/12/30 09:10:11;;;;;;;30.70;22.60;;;;;;;5.28;69.19;99436.75;5031278;28;20420;-79
2020/12/30 09:12:38;;;;;;;34.00;23.80;;;;;;;5.29;68.89;99424.69;5020025;28;20410;-79
2020/12/30 09:15:07;;;;;;;30.07;23.40;;;;;;;5.34;68.62;99429.03;5039032;28;20506;-80
2020/12/30 09:17:34;;;;;;;30.10;23.27;;;;;;;5.48;68.22;99441.22;5040008;28;20413;-83
2020/12/30 09:20:14;;;;;;;28.20;21.90;;;;;;;5.41;68.76;99435.13;5038741;28;20504;-83
2020/12/30 09:22:40;;;;;;;32.77;23.03;;;;;;;5.18;69.27;99433.22;5039063;28;20735;-78
2020/12/30 09:25:06;;;;;;;32.60;25.07;;;;;;;5.51;67.79;99436.97;5038774;28;20435;-78
2020/12/30 09:27:33;;;;;;;33.70;24.20;;;;;;;5.34;68.54;99438.53;5039163;28;20405;-79
2020/12/30 09:30:13;;;;;;;35.57;25.60;;;;;;;5.08;68.90;99433.09;5039417;28;20170;-82
2020/12/30 09:32:39;;;;;;;31.77;23.50;;;;;;;5.43;68.32;99432.59;5038430;28;20405;-80
2020/12/30 09:35:07;;;;;;;35.17;24.97;;;;;;;5.78;67.13;99434.59;5038398;28;20417;-78
2020/12/30 09:37:32;;;;;;;34.53;26.10;;;;;;;5.63;67.59;99443.09;5038976;28;20408;-79
2020/12/30 09:40:12;;;;;;;33.43;25.03;;;;;;;4.99;69.36;99441.59;5038895;28;20419;-77
2020/12/30 09:42:38;;;;;;;34.73;24.83;;;;;;;5.42;68.70;99436.03;5038541;28;20181;-77
2020/12/30 09:45:06;;;;;;;33.10;23.60;;;;;;;5.11;69.31;99433.97;5038363;28;20428;-76
2020/12/30 09:47:32;;;;;;;34.30;24.40;;;;;;;5.31;68.58;99444.53;5020873;28;20443;-77
2020/12/30 09:49:57;;;;;;;37.00;25.77;;;;;;;5.32;68.74;99437.66;5038088;28;20425;-76
2020/12/30 09:52:22;;;;;;;28.63;23.37;;;;;;;4.95;70.20;99445.88;5038761;28;20158;-76
2020/12/30 09:54:48;;;;;;;37.70;26.07;;;;;;;5.06;70.37;99433.94;5038295;28;20174;-77
2020/12/30 09:57:13;;;;;;;33.37;24.77;;;;;;;4.99;69.60;99446.78;5038284;28;20562;-77
2020/12/30 09:59:38;;;;;;;31.80;23.13;;;;;;;5.47;68.99;99437.78;5038453;28;20189;-76
2020/12/30 10:02:04;;;;;;;30.37;23.40;;;;;;;5.19;69.73;99441.81;5038134;28;20181;-76
2020/12/30 10:04:29;;;;;;;34.10;24.80;;;;;;;5.17;69.37;99435.78;5038149;28;20215;-78
2020/12/30 10:06:54;;;;;;;33.03;23.47;;;;;;;5.30;69.08;99442.78;5020321;28;20190;-77
2020/12/30 10:09:20;;;;;;;32.97;24.70;;;;;;;5.81;68.68;99445.84;5021501;28;20186;-76
2020/12/30 10:11:45;;;;;;;30.77;22.03;;;;;;;5.82;67.49;99444.09;5035481;28;20203;-78
2020/12/30 10:14:10;;;;;;;33.33;22.73;;;;;;;5.62;68.07;99450.00;5027209;28;20253;-77
2020/12/30 10:16:36;;;;;;;28.40;21.77;;;;;;;5.80;68.56;99449.28;5025844;28;20336;-78
2020/12/30 10:19:01;;;;;;;31.63;22.83;;;;;;;5.75;67.37;99450.97;5036731;28;20178;-75
2020/12/30 10:21:30;;;;;;;30.57;23.10;;;;;;;5.86;67.28;99458.81;5036938;28;20204;-75
2020/12/30 10:23:56;;;;;;;32.60;23.10;;;;;;;5.62;67.84;99460.34;5036478;28;20194;-76
2020/12/30 10:26:21;;;;;;;29.00;23.50;;;;;;;5.75;67.80;99461.31;5036749;28;20473;-74
2020/12/30 10:28:47;;;;;;;32.30;22.43;;;;;;;6.00;67.25;99456.38;5037142;28;20170;-76
2020/12/30 10:31:13;;;;;;;31.83;23.10;;;;;;;5.78;67.82;99468.22;5037364;28;20165;-76
2020/12/30 10:33:38;;;;;;;31.90;22.60;;;;;;;5.83;67.74;99458.78;5037139;28;20446;-77
2020/12/30 10:36:07;;;;;;;30.30;23.17;;;;;;;5.76;67.53;99454.41;5038058;28;20206;-75
2020/12/30 10:38:33;;;;;;;33.63;24.70;;;;;;;5.92;67.44;99458.84;5036749;28;20170;-79
2020/12/30 10:40:58;;;;;;;31.93;22.97;;;;;;;6.14;66.35;99466.81;5023920;28;20435;-79
2020/12/30 10:43:23;;;;;;;29.53;22.33;;;;;;;5.68;68.35;99464.69;5039043;28;20154;-81
2020/12/30 10:45:49;;;;;;;33.83;23.70;;;;;;;5.98;67.29;99469.28;5037518;28;20181;-79
2020/12/30 10:48:14;;;;;;;31.67;23.70;;;;;;;5.47;68.01;99481.75;5037322;28;20181;-75
2020/12/30 10:50:39;;;;;;;33.70;24.03;;;;;;;5.76;67.66;99475.09;5036402;28;20497;-75
2020/12/30 10:53:05;;;;;;;35.83;25.30;;;;;;;5.18;69.17;99476.25;5036111;28;20167;-69
2020/12/30 10:55:30;;;;;;;39.23;27.47;;;;;;;5.50;69.07;99475.72;5035295;28;20213;-70
2020/12/30 10:57:55;;;;;;;26.83;21.77;;;;;;;5.57;68.24;99480.09;5036266;28;20252;-69
2020/12/30 11:00:21;;;;;;;33.53;24.87;;;;;;;5.36;69.47;99475.59;5035681;28;20194;-70
2020/12/30 11:02:46;;;;;;;30.57;21.90;;;;;;;5.92;67.93;99469.19;5036122;28;20189;-69
2020/12/30 11:05:11;;;;;;;29.70;22.73;;;;;;;4.78;71.42;99478.38;5036396;28;20166;-69
2020/12/30 11:07:37;;;;;;;29.10;23.00;;;;;;;4.94;71.08;99477.72;5036153;28;20180;-69
2020/12/30 11:10:02;;;;;;;34.07;23.77;;;;;;;5.28;70.09;99474.66;5035221;28;20510;-69
2020/12/30 11:12:28;;;;;;;26.70;21.17;;;;;;;5.36;69.67;99468.69;5035386;28;20177;-70
2020/12/30 11:14:53;;;;;;;28.60;22.00;;;;;;;5.39;70.01;99480.78;5035810;28;20192;-69
2020/12/30 11:17:18;;;;;;;29.23;22.63;;;;;;;5.17;71.02;99484.88;5034986;28;20202;-70
2020/12/30 11:19:44;;;;;;;30.43;22.50;;;;;;;5.22;70.56;99467.69;5035632;28;20167;-71
2020/12/30 11:22:09;;;;;;;30.93;22.67;;;;;;;4.99;71.02;99476.06;5030566;28;20257;-71
2020/12/30 11:24:34;;;;;;;31.27;23.00;;;;;;;5.52;70.03;99463.66;5027351;28;20333;-72